sensor_id;sensor_type;location;lat;lon;timestamp;pressure;altitude;pressure_sealevel;temperature;humidity
14204;BME280;7185;51.854;6.622;2024-03-02T00:02:06;99712.34;;;13.16;50.72
14204;BME280;7185;51.854;6.622;2024-03-02T00:04:38;99710.19;;;13.05;51.18
14204;BME280;7185;51.854;6.622;2024-03-02T00:07:09;99710.50;;;13.18;50.81
14204;BME280;7185;51.854;6.622;2024-03-02T00:09:42;99711.56;;;13.14;50.79
14204;BME280;7185;51.854;6.622;2024-03-02T00:12:15;99708.09;;;13.14;50.90
14204;BME280;7185;51.854;6.622;2024-03-02T00:14:47;99705.84;;;12.84;51.64
14204;BME280;7185;51.854;6.622;2024-03-02T00:17:24;99704.00;;;12.86;51.58
14204;BME280;7185;51.854;6.622;2024-03-02T00:19:56;99694.94;;;13.33;51.09
14204;BME280;7185;51.854;6.622;2024-03-02T00:22:28;99685.84;;;13.00;51.36
14204;BME280;7185;51.854;6.622;2024-03-02T00:25:00;99681.88;;;13.11;51.46
14204;BME280;7185;51.854;6.622;2024-03-02T00:27:32;99686.16;;;12.93;51.49
14204;BME280;7185;51.854;6.622;2024-03-02T00:30:06;99674.31;;;13.23;51.08
14204;BME280;7185;51.854;6.622;2024-03-02T00:33:00;99688.84;;;13.32;50.53
14204;BME280;7185;51.854;6.622;2024-03-02T00:35:31;99687.00;;;13.55;50.54
14204;BME280;7185;51.854;6.622;2024-03-02T00:38:04;99678.47;;;13.08;51.41
14204;BME280;7185;51.854;6.622;2024-03-02T00:40:36;99684.00;;;13.02;51.53
14204;BME280;7185;51.854;6.622;2024-03-02T00:43:18;99694.66;;;13.41;50.63
14204;BME280;7185;51.854;6.622;2024-03-02T00:45:59;99691.28;;;13.77;49.89
14204;BME280;7185;51.854;6.622;2024-03-02T00:48:32;99689.41;;;13.41;50.31
14204;BME280;7185;51.854;6.622;2024-03-02T00:51:06;99685.13;;;13.38;50.77
14204;BME280;7185;51.854;6.622;2024-03-02T00:53:38;99686.59;;;13.23;51.08
14204;BME280;7185;51.854;6.622;2024-03-02T00:56:10;99689.50;;;13.37;50.39
14204;BME280;7185;51.854;6.622;2024-03-02T00:58:42;99673.75;;;13.57;50.36
14204;BME280;7185;51.854;6.622;2024-03-02T01:01:14;99679.59;;;13.44;50.68
14204;BME280;7185;51.854;6.622;2024-03-02T01:03:48;99677.66;;;13.86;49.96
14204;BME280;7185;51.854;6.622;2024-03-02T01:06:20;99680.63;;;13.40;50.58
14204;BME280;7185;51.854;6.622;2024-03-02T01:08:52;99673.47;;;13.63;50.47
14204;BME280;7185;51.854;6.622;2024-03-02T01:11:24;99662.06;;;14.00;49.41
14204;BME280;7185;51.854;6.622;2024-03-02T01:13:56;99661.31;;;13.98;49.89
14204;BME280;7185;51.854;6.622;2024-03-02T01:16:27;99662.09;;;13.81;49.57
14204;BME280;7185;51.854;6.622;2024-03-02T01:19:01;99652.53;;;13.79;49.89
14204;BME280;7185;51.854;6.622;2024-03-02T01:21:32;99654.09;;;13.45;50.38
14204;BME280;7185;51.854;6.622;2024-03-02T01:24:04;99657.66;;;13.44;50.68
14204;BME280;7185;51.854;6.622;2024-03-02T01:26:36;99671.91;;;13.59;50.17
14204;BME280;7185;51.854;6.622;2024-03-02T01:29:08;99664.06;;;13.57;50.71
14204;BME280;7185;51.854;6.622;2024-03-02T01:31:39;99678.66;;;13.83;49.75
14204;BME280;7185;51.854;6.622;2024-03-02T01:34:13;99660.72;;;13.92;49.90
14204;BME280;7185;51.854;6.622;2024-03-02T01:36:45;99664.75;;;14.18;49.20
14204;BME280;7185;51.854;6.622;2024-03-02T01:39:17;99662.03;;;13.83;49.46
14204;BME280;7185;51.854;6.622;2024-03-02T01:41:48;99658.59;;;13.81;50.53
14204;BME280;7185;51.854;6.622;2024-03-02T01:44:20;99663.50;;;13.89;49.71
14204;BME280;7185;51.854;6.622;2024-03-02T01:46:52;99659.31;;;14.21;49.21
14204;BME280;7185;51.854;6.622;2024-03-02T01:49:25;99658.50;;;14.01;49.65
14204;BME280;7185;51.854;6.622;2024-03-02T01:51:57;99662.03;;;13.83;49.77
14204;BME280;7185;51.854;6.622;2024-03-02T01:54:28;99672.75;;;13.97;50.00
14204;BME280;7185;51.854;6.622;2024-03-02T01:57:00;99665.56;;;14.20;49.14
14204;BME280;7185;51.854;6.622;2024-03-02T01:59:32;99663.78;;;14.01;49.86
14204;BME280;7185;51.854;6.622;2024-03-02T02:02:04;99662.84;;;13.64;50.89
14204;BME280;7185;51.854;6.622;2024-03-02T02:04:37;99670.88;;;13.99;49.62
14204;BME280;7185;51.854;6.622;2024-03-02T02:07:09;99666.13;;;14.08;49.18
14204;BME280;7185;51.854;6.622;2024-03-02T02:09:41;99674.59;;;13.95;49.23
14204;BME280;7185;51.854;6.622;2024-03-02T02:12:14;99673.59;;;13.79;49.84
14204;BME280;7185;51.854;6.622;2024-03-02T02:14:47;99683.31;;;13.97;49.59
14204;BME280;7185;51.854;6.622;2024-03-02T02:17:20;99678.25;;;14.29;49.01
14204;BME280;7185;51.854;6.622;2024-03-02T02:19:53;99663.34;;;14.11;49.29
14204;BME280;7185;51.854;6.622;2024-03-02T02:22:26;99665.81;;;14.14;49.22
14204;BME280;7185;51.854;6.622;2024-03-02T02:24:58;99673.97;;;13.90;49.81
14204;BME280;7185;51.854;6.622;2024-03-02T02:27:30;99679.59;;;13.82;49.85
14204;BME280;7185;51.854;6.622;2024-03-02T02:30:02;99672.28;;;14.26;49.15
14204;BME280;7185;51.854;6.622;2024-03-02T02:32:34;99671.28;;;14.28;48.78
14204;BME280;7185;51.854;6.622;2024-03-02T02:35:06;99680.13;;;14.27;49.02
14204;BME280;7185;51.854;6.622;2024-03-02T02:37:41;99684.41;;;14.84;48.12
14204;BME280;7185;51.854;6.622;2024-03-02T02:40:13;99688.66;;;14.69;48.71
14204;BME280;7185;51.854;6.622;2024-03-02T02:42:45;99696.81;;;14.45;48.74
14204;BME280;7185;51.854;6.622;2024-03-02T02:45:17;99679.00;;;14.14;48.92
14204;BME280;7185;51.854;6.622;2024-03-02T02:47:49;99686.66;;;14.38;49.32
14204;BME280;7185;51.854;6.622;2024-03-02T02:50:20;99684.56;;;14.08;49.89
14204;BME280;7185;51.854;6.622;2024-03-02T02:52:53;99682.13;;;14.03;49.50
14204;BME280;7185;51.854;6.622;2024-03-02T02:55:25;99680.22;;;14.07;49.50
14204;BME280;7185;51.854;6.622;2024-03-02T02:57:57;99679.84;;;14.33;49.06
14204;BME280;7185;51.854;6.622;2024-03-02T03:00:28;99683.41;;;14.50;48.73
14204;BME280;7185;51.854;6.622;2024-03-02T03:03:00;99687.03;;;14.66;49.61
14204;BME280;7185;51.854;6.622;2024-03-02T03:05:31;99692.63;;;14.41;49.32
14204;BME280;7185;51.854;6.622;2024-03-02T03:08:05;99689.63;;;14.49;49.97
14204;BME280;7185;51.854;6.622;2024-03-02T03:10:37;99692.03;;;14.54;50.04
14204;BME280;7185;51.854;6.622;2024-03-02T03:13:08;99696.09;;;14.24;50.61
14204;BME280;7185;51.854;6.622;2024-03-02T03:15:40;99700.94;;;14.33;50.51
14204;BME280;7185;51.854;6.622;2024-03-02T03:18:12;99685.44;;;14.45;50.44
14204;BME280;7185;51.854;6.622;2024-03-02T03:20:44;99697.88;;;14.60;50.44
14204;BME280;7185;51.854;6.622;2024-03-02T03:23:17;99693.78;;;14.35;51.50
14204;BME280;7185;51.854;6.622;2024-03-02T03:25:49;99686.03;;;14.32;51.68
14204;BME280;7185;51.854;6.622;2024-03-02T03:28:20;99690.97;;;14.21;52.11
14204;BME280;7185;51.854;6.622;2024-03-02T03:30:52;99686.19;;;14.10;52.86
14204;BME280;7185;51.854;6.622;2024-03-02T03:33:23;99691.56;;;13.90;53.46
14204;BME280;7185;51.854;6.622;2024-03-02T03:35:55;99680.72;;;14.15;52.91
14204;BME280;7185;51.854;6.622;2024-03-02T03:38:28;99686.16;;;14.12;53.61
14204;BME280;7185;51.854;6.622;2024-03-02T03:41:00;99688.69;;;14.13;53.10
14204;BME280;7185;51.854;6.622;2024-03-02T03:43:32;99693.75;;;13.80;53.92
14204;BME280;7185;51.854;6.622;2024-03-02T03:46:03;99686.28;;;14.09;53.51
14204;BME280;7185;51.854;6.622;2024-03-02T03:48:35;99696.47;;;13.97;53.85
14204;BME280;7185;51.854;6.622;2024-03-02T03:51:07;99672.41;;;13.86;54.33
14204;BME280;7185;51.854;6.622;2024-03-02T03:53:40;99686.44;;;13.67;54.79
14204;BME280;7185;51.854;6.622;2024-03-02T03:56:12;99694.91;;;13.34;55.46
14204;BME280;7185;51.854;6.622;2024-03-02T03:58:43;99695.81;;;13.33;55.76
14204;BME280;7185;51.854;6.622;2024-03-02T04:01:15;99693.25;;;13.52;55.24
14204;BME280;7185;51.854;6.622;2024-03-02T04:03:47;99703.84;;;13.51;55.66
14204;BME280;7185;51.854;6.622;2024-03-02T04:06:18;99699.25;;;13.56;55.31
14204;BME280;7185;51.854;6.622;2024-03-02T04:08:51;99696.69;;;13.74;54.67
14204;BME280;7185;51.854;6.622;2024-03-02T04:11:23;99695.81;;;13.33;55.63
14204;BME280;7185;51.854;6.622;2024-03-02T04:13:55;99691.97;;;13.61;54.86
14204;BME280;7185;51.854;6.622;2024-03-02T04:16:26;99685.97;;;13.38;55.29
14204;BME280;7185;51.854;6.622;2024-03-02T04:18:59;99686.75;;;13.41;55.08
14204;BME280;7185;51.854;6.622;2024-03-02T04:21:30;99688.31;;;13.45;55.15
14204;BME280;7185;51.854;6.622;2024-03-02T04:24:04;99686.72;;;13.61;54.96
14204;BME280;7185;51.854;6.622;2024-03-02T04:26:36;99699.78;;;13.44;55.33
14204;BME280;7185;51.854;6.622;2024-03-02T04:29:08;99700.13;;;13.15;56.03
14204;BME280;7185;51.854;6.622;2024-03-02T04:31:39;99701.81;;;13.58;54.95
14204;BME280;7185;51.854;6.622;2024-03-02T04:34:11;99700.16;;;13.55;55.48
14204;BME280;7185;51.854;6.622;2024-03-02T04:36:42;99708.91;;;13.55;55.13
14204;BME280;7185;51.854;6.622;2024-03-02T04:39:16;99714.91;;;13.78;54.79
14204;BME280;7185;51.854;6.622;2024-03-02T04:41:47;99709.94;;;13.72;54.65
14204;BME280;7185;51.854;6.622;2024-03-02T04:44:19;99718.88;;;13.68;54.77
14204;BME280;7185;51.854;6.622;2024-03-02T04:46:51;99717.00;;;13.51;55.38
14204;BME280;7185;51.854;6.622;2024-03-02T04:49:23;99717.91;;;13.70;54.86
14204;BME280;7185;51.854;6.622;2024-03-02T04:51:54;99726.34;;;13.37;55.56
14204;BME280;7185;51.854;6.622;2024-03-02T04:54:28;99728.81;;;13.42;55.55
14204;BME280;7185;51.854;6.622;2024-03-02T04:57:00;99732.81;;;13.51;55.36
14204;BME280;7185;51.854;6.622;2024-03-02T04:59:31;99740.59;;;13.33;55.48
14204;BME280;7185;51.854;6.622;2024-03-02T05:02:03;99735.41;;;13.71;54.69
14204;BME280;7185;51.854;6.622;2024-03-02T05:04:35;99741.88;;;13.64;55.17
14204;BME280;7185;51.854;6.622;2024-03-02T05:07:06;99752.94;;;13.73;55.08
14204;BME280;7185;51.854;6.622;2024-03-02T05:09:39;99752.38;;;13.66;54.96
14204;BME280;7185;51.854;6.622;2024-03-02T05:12:11;99751.50;;;13.65;55.01
14204;BME280;7185;51.854;6.622;2024-03-02T05:15:11;99738.50;;;13.42;55.29
14204;BME280;7185;51.854;6.622;2024-03-02T05:17:43;99730.41;;;13.65;54.82
14204;BME280;7185;51.854;6.622;2024-03-02T05:20:15;99731.09;;;13.50;55.20
14204;BME280;7185;51.854;6.622;2024-03-02T05:22:47;99737.31;;;13.49;55.28
14204;BME280;7185;51.854;6.622;2024-03-02T05:25:21;99745.06;;;13.11;56.29
14204;BME280;7185;51.854;6.622;2024-03-02T05:27:53;99731.16;;;13.28;55.90
14204;BME280;7185;51.854;6.622;2024-03-02T05:30:24;99740.34;;;13.39;55.54
14204;BME280;7185;51.854;6.622;2024-03-02T05:32:57;99733.72;;;13.50;55.36
14204;BME280;7185;51.854;6.622;2024-03-02T05:35:28;99743.13;;;13.35;55.63
14204;BME280;7185;51.854;6.622;2024-03-02T05:38:00;99742.56;;;13.28;55.54
14204;BME280;7185;51.854;6.622;2024-03-02T05:40:33;99740.78;;;13.29;55.54
14204;BME280;7185;51.854;6.622;2024-03-02T05:43:04;99746.13;;;13.27;55.65
14204;BME280;7185;51.854;6.622;2024-03-02T05:45:36;99755.03;;;13.23;55.74
14204;BME280;7185;51.854;6.622;2024-03-02T05:48:08;99745.97;;;13.30;55.60
14204;BME280;7185;51.854;6.622;2024-03-02T05:50:40;99747.69;;;13.31;55.60
14204;BME280;7185;51.854;6.622;2024-03-02T05:53:12;99753.09;;;13.28;55.60
14204;BME280;7185;51.854;6.622;2024-03-02T05:55:45;99752.38;;;13.25;55.72
14204;BME280;7185;51.854;6.622;2024-03-02T05:58:17;99751.75;;;13.18;56.18
14204;BME280;7185;51.854;6.622;2024-03-02T06:00:58;99747.69;;;13.31;55.88
14204;BME280;7185;51.854;6.622;2024-03-02T06:03:30;99763.47;;;13.31;55.57
14204;BME280;7185;51.854;6.622;2024-03-02T06:06:02;99772.81;;;13.18;56.09
14204;BME280;7185;51.854;6.622;2024-03-02T06:08:33;99764.66;;;13.24;55.96
14204;BME280;7185;51.854;6.622;2024-03-02T06:11:07;99770.72;;;13.26;56.08
14204;BME280;7185;51.854;6.622;2024-03-02T06:13:38;99772.47;;;13.05;56.52
14204;BME280;7185;51.854;6.622;2024-03-02T06:16:10;99784.53;;;13.11;56.49
14204;BME280;7185;51.854;6.622;2024-03-02T06:18:41;99783.41;;;12.96;57.12
14204;BME280;7185;51.854;6.622;2024-03-02T06:21:13;99786.09;;;13.15;56.54
14204;BME280;7185;51.854;6.622;2024-03-02T06:23:45;99784.97;;;13.00;56.86
14204;BME280;7185;51.854;6.622;2024-03-02T06:26:18;99791.34;;;12.94;57.05
14204;BME280;7185;51.854;6.622;2024-03-02T06:28:50;99790.34;;;13.19;56.50
14204;BME280;7185;51.854;6.622;2024-03-02T06:31:22;99788.34;;;13.24;56.54
14204;BME280;7185;51.854;6.622;2024-03-02T06:33:53;99773.44;;;13.25;56.26
14204;BME280;7185;51.854;6.622;2024-03-02T06:36:25;99791.91;;;13.23;56.40
14204;BME280;7185;51.854;6.622;2024-03-02T06:38:57;99783.22;;;13.21;56.54
14204;BME280;7185;51.854;6.622;2024-03-02T06:41:30;99776.09;;;13.23;56.50
14204;BME280;7185;51.854;6.622;2024-03-02T06:44:01;99790.38;;;13.39;56.24
14204;BME280;7185;51.854;6.622;2024-03-02T06:46:33;99798.75;;;13.27;56.14
14204;BME280;7185;51.854;6.622;2024-03-02T06:49:05;99799.56;;;13.50;55.83
14204;BME280;7185;51.854;6.622;2024-03-02T06:51:36;99806.81;;;13.45;56.00
14204;BME280;7185;51.854;6.622;2024-03-02T06:54:08;99798.13;;;13.43;56.17
14204;BME280;7185;51.854;6.622;2024-03-02T06:56:41;99807.72;;;13.44;55.83
14204;BME280;7185;51.854;6.622;2024-03-02T06:59:16;99800.16;;;13.57;56.00
14204;BME280;7185;51.854;6.622;2024-03-02T07:01:48;99803.63;;;13.98;55.34
14204;BME280;7185;51.854;6.622;2024-03-02T07:04:19;99815.19;;;13.94;54.67
14204;BME280;7185;51.854;6.622;2024-03-02T07:06:51;99812.09;;;14.24;53.85
14204;BME280;7185;51.854;6.622;2024-03-02T07:09:24;99815.81;;;14.20;53.85
14204;BME280;7185;51.854;6.622;2024-03-02T07:11:57;99808.03;;;14.55;53.22
14204;BME280;7185;51.854;6.622;2024-03-02T07:14:29;99813.69;;;14.66;52.39
14204;BME280;7185;51.854;6.622;2024-03-02T07:17:14;99807.97;;;14.76;52.07
14204;BME280;7185;51.854;6.622;2024-03-02T07:19:46;99811.84;;;14.69;51.71
14204;BME280;7185;51.854;6.622;2024-03-02T07:22:18;99826.75;;;14.87;51.23
14204;BME280;7185;51.854;6.622;2024-03-02T07:24:49;99821.22;;;15.11;51.49
14204;BME280;7185;51.854;6.622;2024-03-02T07:27:22;99825.00;;;15.05;50.25
14204;BME280;7185;51.854;6.622;2024-03-02T07:29:54;99828.53;;;15.23;49.83
14204;BME280;7185;51.854;6.622;2024-03-02T07:32:26;99830.72;;;14.96;50.37
14204;BME280;7185;51.854;6.622;2024-03-02T07:34:57;99833.41;;;14.77;50.55
14204;BME280;7185;51.854;6.622;2024-03-02T07:37:29;99830.81;;;14.56;51.09
14204;BME280;7185;51.854;6.622;2024-03-02T07:40:01;99837.72;;;14.01;51.93
14204;BME280;7185;51.854;6.622;2024-03-02T07:42:34;99838.31;;;14.08;53.03
14204;BME280;7185;51.854;6.622;2024-03-02T07:45:07;99834.34;;;14.38;51.46
14204;BME280;7185;51.854;6.622;2024-03-02T07:47:39;99840.91;;;14.48;51.13
14204;BME280;7185;51.854;6.622;2024-03-02T07:50:10;99848.03;;;14.46;51.08
14204;BME280;7185;51.854;6.622;2024-03-02T07:52:42;99844.69;;;15.17;50.09
14204;BME280;7185;51.854;6.622;2024-03-02T07:55:14;99853.59;;;15.32;48.90
14204;BME280;7185;51.854;6.622;2024-03-02T07:57:48;99849.41;;;15.81;47.96
14204;BME280;7185;51.854;6.622;2024-03-02T08:00:20;99856.66;;;15.59;48.32
14204;BME280;7185;51.854;6.622;2024-03-02T08:02:53;99844.81;;;16.51;46.27
14204;BME280;7185;51.854;6.622;2024-03-02T08:05:25;99853.47;;;16.37;46.09
14204;BME280;7185;51.854;6.622;2024-03-02T08:07:57;99849.75;;;16.41;46.36
14204;BME280;7185;51.854;6.622;2024-03-02T08:10:29;99857.34;;;16.64;45.85
14204;BME280;7185;51.854;6.622;2024-03-02T08:13:02;99858.63;;;16.56;45.20
14204;BME280;7185;51.854;6.622;2024-03-02T08:15:34;99857.09;;;17.00;44.95
14204;BME280;7185;51.854;6.622;2024-03-02T08:18:06;99861.78;;;17.72;43.13
14204;BME280;7185;51.854;6.622;2024-03-02T08:20:38;99846.59;;;18.19;42.68
14204;BME280;7185;51.854;6.622;2024-03-02T08:23:10;99860.88;;;18.45;41.37
14204;BME280;7185;51.854;6.622;2024-03-02T08:25:42;99866.75;;;19.07;40.56
14204;BME280;7185;51.854;6.622;2024-03-02T08:28:15;99864.06;;;18.65;40.90
14204;BME280;7185;51.854;6.622;2024-03-02T08:30:46;99867.13;;;18.44;40.72
14204;BME280;7185;51.854;6.622;2024-03-02T08:33:18;99866.78;;;17.77;42.81
14204;BME280;7185;51.854;6.622;2024-03-02T08:35:50;99866.41;;;18.13;41.89
14204;BME280;7185;51.854;6.622;2024-03-02T08:38:22;99875.47;;;17.95;42.07
14204;BME280;7185;51.854;6.622;2024-03-02T08:40:54;99872.66;;;18.41;41.69
14204;BME280;7185;51.854;6.622;2024-03-02T08:43:27;99868.50;;;18.93;40.63
14204;BME280;7185;51.854;6.622;2024-03-02T08:45:59;99877.31;;;17.78;42.00
14204;BME280;7185;51.854;6.622;2024-03-02T08:48:31;99856.63;;;18.28;41.51
14204;BME280;7185;51.854;6.622;2024-03-02T08:51:03;99865.31;;;19.01;40.27
14204;BME280;7185;51.854;6.622;2024-03-02T08:53:38;99866.56;;;19.23;39.82
14204;BME280;7185;51.854;6.622;2024-03-02T08:56:09;99869.63;;;19.17;40.02
14204;BME280;7185;51.854;6.622;2024-03-02T08:58:44;99875.06;;;18.73;40.39
14204;BME280;7185;51.854;6.622;2024-03-02T09:01:19;99872.66;;;19.25;39.18
14204;BME280;7185;51.854;6.622;2024-03-02T09:03:50;99880.47;;;19.14;38.90
14204;BME280;7185;51.854;6.622;2024-03-02T09:06:22;99870.91;;;18.69;39.97
14204;BME280;7185;51.854;6.622;2024-03-02T09:08:54;99875.06;;;18.59;39.54
14204;BME280;7185;51.854;6.622;2024-03-02T09:11:26;99870.81;;;17.53;41.48
14204;BME280;7185;51.854;6.622;2024-03-02T09:13:59;99869.19;;;18.68;39.66
14204;BME280;7185;51.854;6.622;2024-03-02T09:16:30;99874.66;;;18.79;40.38
14204;BME280;7185;51.854;6.622;2024-03-02T09:19:02;99866.09;;;19.31;39.02
14204;BME280;7185;51.854;6.622;2024-03-02T09:21:34;99869.03;;;20.44;37.95
14204;BME280;7185;51.854;6.622;2024-03-02T09:24:06;99880.78;;;19.49;37.90
14204;BME280;7185;51.854;6.622;2024-03-02T09:26:37;99881.81;;;19.34;38.10
14204;BME280;7185;51.854;6.622;2024-03-02T09:29:10;99891.94;;;19.95;37.39
14204;BME280;7185;51.854;6.622;2024-03-02T09:31:42;99882.41;;;19.78;37.87
14204;BME280;7185;51.854;6.622;2024-03-02T09:34:14;99876.56;;;19.72;37.79
14204;BME280;7185;51.854;6.622;2024-03-02T09:36:46;99884.25;;;19.77;37.33
14204;BME280;7185;51.854;6.622;2024-03-02T09:39:18;99887.91;;;19.89;37.15
14204;BME280;7185;51.854;6.622;2024-03-02T09:41:49;99880.41;;;20.46;36.39
14204;BME280;7185;51.854;6.622;2024-03-02T09:44:23;99882.69;;;20.00;36.92
14204;BME280;7185;51.854;6.622;2024-03-02T09:46:55;99888.19;;;19.31;38.96
14204;BME280;7185;51.854;6.622;2024-03-02T09:49:33;99882.72;;;18.92;38.51
14204;BME280;7185;51.854;6.622;2024-03-02T09:52:06;99881.84;;;20.00;36.11
14204;BME280;7185;51.854;6.622;2024-03-02T09:54:38;99879.72;;;19.52;36.96
14204;BME280;7185;51.854;6.622;2024-03-02T09:57:10;99883.28;;;19.25;37.42
14204;BME280;7185;51.854;6.622;2024-03-02T09:59:43;99888.16;;;18.62;38.81
14204;BME280;7185;51.854;6.622;2024-03-02T10:02:15;99886.00;;;18.40;39.46
14204;BME280;7185;51.854;6.622;2024-03-02T10:04:49;99881.44;;;18.56;38.90
14204;BME280;7185;51.854;6.622;2024-03-02T10:07:20;99873.91;;;18.77;38.99
14204;BME280;7185;51.854;6.622;2024-03-02T10:09:52;99860.69;;;18.90;39.65
14204;BME280;7185;51.854;6.622;2024-03-02T10:12:24;99873.94;;;18.63;39.80
14204;BME280;7185;51.854;6.622;2024-03-02T10:15:04;99871.03;;;18.53;39.29
14204;BME280;7185;51.854;6.622;2024-03-02T10:17:38;99878.53;;;18.18;40.89
14204;BME280;7185;51.854;6.622;2024-03-02T10:20:21;99864.78;;;19.23;38.92
14204;BME280;7185;51.854;6.622;2024-03-02T10:22:54;99870.84;;;18.98;39.25
14204;BME280;7185;51.854;6.622;2024-03-02T10:25:30;99870.34;;;18.64;39.37
14204;BME280;7185;51.854;6.622;2024-03-02T10:28:03;99862.50;;;20.48;38.05
14204;BME280;7185;51.854;6.622;2024-03-02T10:30:37;99856.97;;;21.37;35.53
14204;BME280;7185;51.854;6.622;2024-03-02T10:33:09;99860.94;;;20.82;35.57
14204;BME280;7185;51.854;6.622;2024-03-02T10:35:41;99870.19;;;19.62;36.50
14204;BME280;7185;51.854;6.622;2024-03-02T10:38:13;99868.53;;;20.76;35.87
14204;BME280;7185;51.854;6.622;2024-03-02T10:40:46;99858.03;;;21.58;35.19
14204;BME280;7185;51.854;6.622;2024-03-02T10:43:19;99862.25;;;21.01;34.58
14204;BME280;7185;51.854;6.622;2024-03-02T10:45:54;99865.53;;;22.11;33.29
14204;BME280;7185;51.854;6.622;2024-03-02T10:48:28;99869.97;;;21.17;34.16
14204;BME280;7185;51.854;6.622;2024-03-02T10:51:00;99864.88;;;21.14;34.01
14204;BME280;7185;51.854;6.622;2024-03-02T10:53:32;99863.38;;;21.58;33.57
14204;BME280;7185;51.854;6.622;2024-03-02T10:56:07;99848.66;;;22.45;32.68
14204;BME280;7185;51.854;6.622;2024-03-02T10:58:39;99857.41;;;22.91;31.57
14204;BME280;7185;51.854;6.622;2024-03-02T11:01:13;99853.38;;;22.30;31.48
14204;BME280;7185;51.854;6.622;2024-03-02T11:03:46;99848.66;;;22.56;32.07
14204;BME280;7185;51.854;6.622;2024-03-02T11:06:19;99848.66;;;22.56;31.81
14204;BME280;7185;51.854;6.622;2024-03-02T11:08:52;99849.84;;;22.64;31.45
14204;BME280;7185;51.854;6.622;2024-03-02T11:11:30;99842.69;;;23.08;31.24
14204;BME280;7185;51.854;6.622;2024-03-02T11:14:07;99842.47;;;22.10;32.42
14204;BME280;7185;51.854;6.622;2024-03-02T11:16:43;99850.53;;;21.75;31.88
14204;BME280;7185;51.854;6.622;2024-03-02T11:19:16;99861.69;;;21.09;32.56
14204;BME280;7185;51.854;6.622;2024-03-02T11:21:48;99850.56;;;22.32;31.54
14204;BME280;7185;51.854;6.622;2024-03-02T11:24:30;99836.75;;;22.49;31.63
14204;BME280;7185;51.854;6.622;2024-03-02T11:27:05;99834.63;;;24.04;30.03
14204;BME280;7185;51.854;6.622;2024-03-02T11:29:45;99823.59;;;24.28;29.27
14204;BME280;7185;51.854;6.622;2024-03-02T11:32:20;99820.81;;;24.49;28.70
14204;BME280;7185;51.854;6.622;2024-03-02T11:34:53;99820.69;;;24.41;28.90
14204;BME280;7185;51.854;6.622;2024-03-02T11:37:25;99828.41;;;23.30;29.50
14204;BME280;7185;51.854;6.622;2024-03-02T11:39:57;99820.69;;;24.41;28.88
14204;BME280;7185;51.854;6.622;2024-03-02T11:42:29;99821.31;;;24.64;28.40
14204;BME280;7185;51.854;6.622;2024-03-02T11:45:00;99812.88;;;24.79;28.86
14204;BME280;7185;51.854;6.622;2024-03-02T11:47:33;99807.97;;;25.90;28.60
14204;BME280;7185;51.854;6.622;2024-03-02T11:50:06;99805.38;;;26.08;27.50
14204;BME280;7185;51.854;6.622;2024-03-02T11:52:45;99814.84;;;24.67;27.89
14204;BME280;7185;51.854;6.622;2024-03-02T11:55:18;99796.19;;;25.34;27.77
14204;BME280;7185;51.854;6.622;2024-03-02T11:57:52;99802.16;;;25.18;26.96
14204;BME280;7185;51.854;6.622;2024-03-02T12:00:24;99797.63;;;24.70;28.64
14204;BME280;7185;51.854;6.622;2024-03-02T12:03:02;99798.72;;;25.65;26.83
14204;BME280;7185;51.854;6.622;2024-03-02T12:05:36;99800.28;;;24.60;27.51
14204;BME280;7185;51.854;6.622;2024-03-02T12:08:08;99802.16;;;25.48;27.71
14204;BME280;7185;51.854;6.622;2024-03-02T12:10:43;99798.06;;;25.34;27.18
14204;BME280;7185;51.854;6.622;2024-03-02T12:13:27;99790.56;;;25.37;27.55
14204;BME280;7185;51.854;6.622;2024-03-02T12:16:00;99778.06;;;25.75;27.48
14204;BME280;7185;51.854;6.622;2024-03-02T12:18:41;99778.63;;;25.69;26.61
14204;BME280;7185;51.854;6.622;2024-03-02T12:21:16;99785.09;;;24.70;27.81
14204;BME280;7185;51.854;6.622;2024-03-02T12:23:48;99788.16;;;25.54;27.82
14204;BME280;7185;51.854;6.622;2024-03-02T12:26:23;99791.69;;;24.66;28.34
14204;BME280;7185;51.854;6.622;2024-03-02T12:28:56;99788.81;;;24.38;28.73
14204;BME280;7185;51.854;6.622;2024-03-02T12:31:29;99780.97;;;24.15;28.85
14204;BME280;7185;51.854;6.622;2024-03-02T12:34:03;99778.03;;;23.57;29.83
14204;BME280;7185;51.854;6.622;2024-03-02T12:36:37;99771.41;;;23.61;30.19
14204;BME280;7185;51.854;6.622;2024-03-02T12:39:10;99765.31;;;24.11;29.11
14204;BME280;7185;51.854;6.622;2024-03-02T12:41:42;99773.25;;;24.82;28.18
14204;BME280;7185;51.854;6.622;2024-03-02T12:44:16;99773.16;;;23.93;29.22
14204;BME280;7185;51.854;6.622;2024-03-02T12:46:49;99762.88;;;24.48;29.94
14204;BME280;7185;51.854;6.622;2024-03-02T12:49:22;99768.59;;;22.66;30.64
14204;BME280;7185;51.854;6.622;2024-03-02T12:51:54;99772.50;;;22.62;30.73
14204;BME280;7185;51.854;6.622;2024-03-02T12:54:28;99761.50;;;22.10;31.99
14204;BME280;7185;51.854;6.622;2024-03-02T12:57:00;99768.22;;;21.23;32.54
14204;BME280;7185;51.854;6.622;2024-03-02T12:59:32;99763.59;;;20.65;34.37
14204;BME280;7185;51.854;6.622;2024-03-02T13:02:06;99760.34;;;20.86;33.72
14204;BME280;7185;51.854;6.622;2024-03-02T13:04:42;99763.88;;;20.49;35.00
14204;BME280;7185;51.854;6.622;2024-03-02T13:07:14;99762.09;;;20.74;34.50
14204;BME280;7185;51.854;6.622;2024-03-02T13:09:46;99763.78;;;20.14;35.25
14204;BME280;7185;51.854;6.622;2024-03-02T13:14:49;99756.25;;;20.93;34.35
14204;BME280;7185;51.854;6.622;2024-03-02T13:17:26;99749.88;;;20.34;35.18
14204;BME280;7185;51.854;6.622;2024-03-02T13:20:00;99749.66;;;20.37;34.90
14204;BME280;7185;51.854;6.622;2024-03-02T13:22:34;99752.09;;;20.03;35.15
14204;BME280;7185;51.854;6.622;2024-03-02T13:25:07;99747.44;;;19.94;36.35
14204;BME280;7185;51.854;6.622;2024-03-02T13:27:45;99749.41;;;20.41;34.77
14204;BME280;7185;51.854;6.622;2024-03-02T13:30:23;99742.75;;;20.59;34.77
14204;BME280;7185;51.854;6.622;2024-03-02T13:32:58;99743.28;;;20.27;35.04
14204;BME280;7185;51.854;6.622;2024-03-02T13:35:35;99743.66;;;20.22;35.72
14204;BME280;7185;51.854;6.622;2024-03-02T13:38:12;99739.91;;;20.25;35.85
14204;BME280;7185;51.854;6.622;2024-03-02T13:40:44;99733.78;;;20.12;35.87
14204;BME280;7185;51.854;6.622;2024-03-02T13:43:22;99741.63;;;20.26;35.50